createdAt,value
2017-08-02T00:00:10.543Z,0
2017-08-02T00:01:10.846Z,0
2017-08-02T00:02:11.142Z,0
2017-08-02T00:03:11.138Z,0
2017-08-02T00:04:10.823Z,0
2017-08-02T00:05:11.136Z,0
2017-08-02T00:06:10.808Z,0
2017-08-02T00:07:10.821Z,0
2017-08-02T00:08:11.116Z,0
2017-08-02T00:09:11.114Z,0
2017-08-02T00:10:10.806Z,0
2017-08-02T00:11:11.097Z,0
2017-08-02T00:12:11.089Z,0
2017-08-02T00:13:11.133Z,0
2017-08-02T00:14:11.105Z,0
2017-08-02T00:15:11.085Z,0
2017-08-02T00:16:11.086Z,0
2017-08-02T00:17:10.760Z,0
2017-08-02T00:18:10.760Z,0
2017-08-02T00:19:11.057Z,0
2017-08-02T00:20:11.052Z,0
2017-08-02T00:21:11.053Z,0
2017-08-02T00:22:10.749Z,0
2017-08-02T00:23:11.034Z,0
2017-08-02T00:24:11.045Z,0
2017-08-02T00:25:11.018Z,0
2017-08-02T00:26:11.017Z,0
2017-08-02T00:27:11.023Z,0
2017-08-02T00:28:11.006Z,0
2017-08-02T00:29:10.699Z,0
2017-08-02T00:30:10.699Z,0
2017-08-02T00:31:10.993Z,0
2017-08-02T00:32:10.988Z,0
2017-08-02T00:33:10.998Z,0
2017-08-02T00:34:10.984Z,0
2017-08-02T00:35:10.972Z,0
2017-08-02T00:36:10.966Z,0
2017-08-02T00:37:10.961Z,0
2017-08-02T00:38:10.960Z,0
2017-08-02T00:39:10.960Z,0
2017-08-02T00:40:10.642Z,0
2017-08-02T00:41:10.941Z,0
2017-08-02T00:42:10.642Z,0
2017-08-02T00:43:10.940Z,0
2017-08-02T00:44:10.924Z,0
2017-08-02T00:45:10.932Z,0
2017-08-02T00:46:10.919Z,0
2017-08-02T00:47:10.910Z,0
2017-08-02T00:48:10.903Z,0
2017-08-02T00:49:10.907Z,0
2017-08-02T00:50:10.594Z,0
2017-08-02T00:51:10.892Z,0
2017-08-02T00:52:10.887Z,0
2017-08-02T00:53:10.869Z,0
2017-08-02T00:54:10.872Z,0
2017-08-02T00:55:10.867Z,0
2017-08-02T00:56:10.862Z,0
2017-08-02T00:57:10.847Z,0
2017-08-02T00:58:10.548Z,0
2017-08-02T00:59:10.857Z,0
2017-08-02T01:00:10.840Z,0
2017-08-02T01:01:10.832Z,0
2017-08-02T01:02:10.829Z,0
2017-08-02T01:03:10.822Z,0
2017-08-02T01:04:10.820Z,0
2017-08-02T01:05:10.827Z,0
2017-08-02T01:06:10.498Z,0
2017-08-02T01:07:10.811Z,0
2017-08-02T01:08:10.801Z,0
2017-08-02T01:09:10.213Z,0
2017-08-02T01:10:10.183Z,0
2017-08-02T01:11:10.770Z,0
2017-08-02T01:12:10.170Z,0
2017-08-02T01:13:10.761Z,0
2017-08-02T01:14:10.772Z,0
2017-08-02T01:15:10.454Z,0
2017-08-02T01:16:10.757Z,0
2017-08-02T01:17:10.432Z,0
2017-08-02T01:18:10.743Z,0
2017-08-02T01:19:10.741Z,0
2017-08-02T01:20:10.730Z,0
2017-08-02T01:21:10.422Z,0
2017-08-02T01:22:10.704Z,0
2017-08-02T01:23:10.410Z,0
2017-08-02T01:24:10.734Z,0
2017-08-02T01:25:10.699Z,0
2017-08-02T01:26:10.723Z,0
2017-08-02T01:27:10.677Z,0
2017-08-02T01:28:10.692Z,0
2017-08-02T01:29:10.693Z,0
2017-08-02T01:30:10.376Z,0
2017-08-02T01:31:10.678Z,0
2017-08-02T01:32:10.677Z,0
2017-08-02T01:33:10.656Z,0
2017-08-02T01:34:10.352Z,0
2017-08-02T01:35:10.654Z,0
2017-08-02T01:36:10.636Z,0
2017-08-02T01:37:10.335Z,0
2017-08-02T01:38:10.324Z,0
2017-08-02T01:39:10.628Z,0
2017-08-02T01:40:10.613Z,0
2017-08-02T01:41:10.607Z,0
2017-08-02T01:42:09.997Z,0
2017-08-02T01:43:10.605Z,0
2017-08-02T01:44:10.602Z,0
2017-08-02T01:45:10.579Z,0
2017-08-02T01:46:10.590Z,0
2017-08-02T01:47:10.279Z,0
2017-08-02T01:48:10.574Z,0
2017-08-02T01:49:10.568Z,0
2017-08-02T01:50:10.240Z,0
2017-08-02T01:51:09.935Z,0
2017-08-02T01:52:10.548Z,0
2017-08-02T01:53:10.549Z,0
2017-08-02T01:54:10.530Z,0
2017-08-02T01:55:10.523Z,0
2017-08-02T01:56:09.910Z,0
2017-08-02T01:57:10.516Z,0
2017-08-02T01:58:10.203Z,0
2017-08-02T01:59:10.501Z,0
2017-08-02T02:00:10.504Z,0
2017-08-02T02:01:10.193Z,0
2017-08-02T02:02:10.198Z,0
2017-08-02T02:03:10.177Z,0
2017-08-02T02:04:10.477Z,0
2017-08-02T02:05:10.164Z,0
2017-08-02T02:06:10.487Z,0
2017-08-02T02:07:10.454Z,0
2017-08-02T02:08:10.153Z,0
2017-08-02T02:09:10.445Z,0
2017-08-02T02:10:10.441Z,0
2017-08-02T02:11:10.125Z,0
2017-08-02T02:12:10.136Z,0
2017-08-02T02:13:10.431Z,0
2017-08-02T02:14:10.408Z,0
2017-08-02T02:15:10.100Z,0
2017-08-02T02:16:10.097Z,0
2017-08-02T02:17:10.388Z,0
2017-08-02T02:18:10.085Z,0
2017-08-02T02:19:10.389Z,0
2017-08-02T02:20:10.075Z,0
2017-08-02T02:21:10.367Z,0
2017-08-02T02:22:10.086Z,0
2017-08-02T02:23:10.356Z,0
2017-08-02T02:24:10.351Z,0
2017-08-02T02:25:10.346Z,0
2017-08-02T02:26:09.720Z,0
2017-08-02T02:27:10.017Z,0
2017-08-02T02:28:10.015Z,0
2017-08-02T02:29:10.029Z,0
2017-08-02T02:30:10.009Z,0
2017-08-02T02:31:10.295Z,0
2017-08-02T02:32:10.004Z,0
2017-08-02T02:33:10.277Z,0
2017-08-02T02:34:09.970Z,0
2017-08-02T02:35:10.268Z,0
2017-08-02T02:36:10.272Z,0
2017-08-02T02:37:10.256Z,0
2017-08-02T02:38:09.642Z,0
2017-08-02T02:39:10.234Z,0
2017-08-02T02:40:09.946Z,0
2017-08-02T02:41:10.225Z,0
2017-08-02T02:42:10.217Z,0
2017-08-02T02:43:09.914Z,0
2017-08-02T02:44:10.212Z,0
2017-08-02T02:45:09.906Z,0
2017-08-02T02:46:10.197Z,0
2017-08-02T02:47:09.892Z,0
2017-08-02T02:48:09.882Z,0
2017-08-02T02:49:10.174Z,0
2017-08-02T02:50:09.867Z,0
2017-08-02T02:51:09.855Z,0
2017-08-02T02:52:10.146Z,0
2017-08-02T02:53:09.840Z,0
2017-08-02T02:54:10.134Z,0
2017-08-02T02:55:10.134Z,0
2017-08-02T02:56:09.514Z,0
2017-08-02T02:57:10.120Z,0
2017-08-02T02:58:09.502Z,0
2017-08-02T02:59:09.799Z,0
2017-08-02T03:00:10.109Z,0
2017-08-02T03:01:10.082Z,0
2017-08-02T03:02:10.126Z,0
2017-08-02T03:03:10.081Z,0
2017-08-02T03:04:10.067Z,0
2017-08-02T03:05:09.766Z,0
2017-08-02T03:06:10.047Z,0
2017-08-02T03:07:10.059Z,0
2017-08-02T03:08:10.036Z,0
2017-08-02T03:09:10.033Z,0
2017-08-02T03:10:09.713Z,0
2017-08-02T03:11:10.031Z,0
2017-08-02T03:12:10.013Z,0
2017-08-02T03:13:10.009Z,0
2017-08-02T03:14:10.014Z,0
2017-08-02T03:15:09.979Z,0
2017-08-02T03:16:09.378Z,0
2017-08-02T03:17:09.990Z,0
2017-08-02T03:18:09.976Z,0
2017-08-02T03:19:09.960Z,0
2017-08-02T03:20:09.957Z,4
2017-08-02T03:21:09.943Z,4
2017-08-02T03:22:09.946Z,4
2017-08-02T03:23:09.926Z,4
2017-08-02T03:24:09.931Z,4
2017-08-02T03:25:09.616Z,4
2017-08-02T03:26:09.611Z,8
2017-08-02T03:27:09.917Z,8
2017-08-02T03:28:09.903Z,12
2017-08-02T03:29:09.900Z,12
2017-08-02T03:30:09.906Z,12
2017-08-02T03:31:09.880Z,12
2017-08-02T03:32:09.869Z,16
2017-08-02T03:33:09.877Z,20
2017-08-02T03:34:09.871Z,24
2017-08-02T03:35:09.883Z,28
2017-08-02T03:36:09.854Z,36
2017-08-02T03:37:09.843Z,44
2017-08-02T03:38:09.851Z,48
2017-08-02T03:39:09.841Z,60
2017-08-02T03:40:09.521Z,68
2017-08-02T03:41:09.208Z,80
2017-08-02T03:42:09.803Z,92
2017-08-02T03:43:09.497Z,104
2017-08-02T03:44:09.494Z,120
2017-08-02T03:45:09.791Z,136
2017-08-02T03:46:09.493Z,152
2017-08-02T03:47:09.773Z,172
2017-08-02T03:48:09.767Z,196
2017-08-02T03:49:09.762Z,224
2017-08-02T03:50:09.758Z,256
2017-08-02T03:51:09.758Z,288
2017-08-02T03:52:09.753Z,320
2017-08-02T03:53:09.729Z,348
2017-08-02T03:54:09.750Z,380
2017-08-02T03:55:09.420Z,420
2017-08-02T03:56:09.414Z,460
2017-08-02T03:57:09.718Z,500
2017-08-02T03:58:09.096Z,528
2017-08-02T03:59:09.701Z,516
2017-08-02T04:00:09.681Z,492
2017-08-02T04:01:09.675Z,436
2017-08-02T04:02:09.400Z,456
2017-08-02T04:03:09.671Z,524
2017-08-02T04:04:09.664Z,596
2017-08-02T04:05:09.649Z,656
2017-08-02T04:06:09.645Z,736
2017-08-02T04:07:09.348Z,856
2017-08-02T04:08:09.645Z,1000
2017-08-02T04:09:09.618Z,1084
2017-08-02T04:10:09.022Z,1148
2017-08-02T04:11:09.607Z,1236
2017-08-02T04:12:09.607Z,1280
2017-08-02T04:13:09.610Z,1372
2017-08-02T04:14:09.591Z,1500
2017-08-02T04:15:09.590Z,1612
2017-08-02T04:16:09.284Z,1660
2017-08-02T04:17:09.572Z,1780
2017-08-02T04:18:09.267Z,2052
2017-08-02T04:19:09.562Z,2240
2017-08-02T04:20:09.557Z,2368
2017-08-02T04:21:09.547Z,2208
2017-08-02T04:22:09.538Z,2112
2017-08-02T04:23:09.244Z,2140
2017-08-02T04:24:09.540Z,2244
2017-08-02T04:25:09.528Z,2344
2017-08-02T04:26:09.520Z,2456
2017-08-02T04:27:09.514Z,2668
2017-08-02T04:28:09.226Z,2908
2017-08-02T04:29:09.506Z,3180
2017-08-02T04:30:09.188Z,3416
2017-08-02T04:31:09.499Z,3712
2017-08-02T04:32:09.485Z,4064
2017-08-02T04:33:09.468Z,3948
2017-08-02T04:34:08.849Z,3680
2017-08-02T04:35:09.452Z,3584
2017-08-02T04:36:09.458Z,3628
2017-08-02T04:37:09.440Z,3752
2017-08-02T04:38:09.433Z,3888
2017-08-02T04:39:09.431Z,4028
2017-08-02T04:40:09.115Z,4112
2017-08-02T04:41:09.422Z,4172
2017-08-02T04:42:09.408Z,4232
2017-08-02T04:43:09.403Z,4256
2017-08-02T04:44:09.094Z,4288
2017-08-02T04:45:09.420Z,4332
2017-08-02T04:46:09.088Z,4408
2017-08-02T04:47:09.392Z,4476
2017-08-02T04:48:09.372Z,4648
2017-08-02T04:49:09.376Z,5840
2017-08-02T04:50:09.375Z,7688
2017-08-02T04:51:09.053Z,9084
2017-08-02T04:52:09.067Z,9556
2017-08-02T04:53:08.735Z,9916
2017-08-02T04:54:09.336Z,10172
2017-08-02T04:55:09.018Z,10124
2017-08-02T04:56:09.019Z,10408
2017-08-02T04:57:09.320Z,11816
2017-08-02T04:58:09.017Z,13100
2017-08-02T04:59:09.316Z,12496
2017-08-02T05:00:08.995Z,12148
2017-08-02T05:01:09.019Z,12136
2017-08-02T05:02:08.995Z,11984
2017-08-02T05:03:08.974Z,12232
2017-08-02T05:04:09.277Z,13316
2017-08-02T05:05:09.285Z,13412
2017-08-02T05:06:08.965Z,13676
2017-08-02T05:07:09.265Z,13884
2017-08-02T05:08:08.960Z,12356
2017-08-02T05:09:09.245Z,10712
2017-08-02T05:10:08.933Z,11708
2017-08-02T05:11:08.928Z,15624
2017-08-02T05:12:08.938Z,18880
2017-08-02T05:13:09.219Z,18656
2017-08-02T05:14:09.212Z,16332
2017-08-02T05:15:08.616Z,15756
2017-08-02T05:16:09.217Z,16928
2017-08-02T05:17:08.897Z,18784
2017-08-02T05:18:09.198Z,19072
2017-08-02T05:19:09.196Z,18432
2017-08-02T05:20:08.882Z,19328
2017-08-02T05:21:09.171Z,19136
2017-08-02T05:22:08.566Z,19456
2017-08-02T05:23:08.876Z,20608
2017-08-02T05:24:09.166Z,20640
2017-08-02T05:25:08.862Z,20576
2017-08-02T05:26:08.859Z,18496
2017-08-02T05:27:08.840Z,17504
2017-08-02T05:28:08.525Z,21312
2017-08-02T05:29:08.827Z,22080
2017-08-02T05:30:09.129Z,22432
2017-08-02T05:31:08.825Z,23360
2017-08-02T05:32:08.817Z,23264
2017-08-02T05:33:09.121Z,23808
2017-08-02T05:34:08.802Z,21696
2017-08-02T05:35:09.104Z,20064
2017-08-02T05:36:09.091Z,21472
2017-08-02T05:37:08.789Z,22912
2017-08-02T05:38:08.780Z,24288
2017-08-02T05:39:09.090Z,24672
2017-08-02T05:40:09.082Z,23936
2017-08-02T05:41:09.098Z,23008
2017-08-02T05:42:08.765Z,24256
2017-08-02T05:43:09.063Z,24320
2017-08-02T05:44:09.045Z,25664
2017-08-02T05:45:08.749Z,28384
2017-08-02T05:46:09.041Z,29280
2017-08-02T05:47:08.439Z,28960
2017-08-02T05:48:09.037Z,31872
2017-08-02T05:49:09.061Z,30688
2017-08-02T05:50:09.030Z,27328
2017-08-02T05:51:09.011Z,27136
2017-08-02T05:52:09.009Z,27712
2017-08-02T05:53:09.036Z,32320
2017-08-02T05:54:09.009Z,34400
2017-08-02T05:55:08.994Z,31904
2017-08-02T05:56:08.994Z,33824
2017-08-02T05:57:08.987Z,34240
2017-08-02T05:58:08.991Z,32672
2017-08-02T05:59:08.971Z,31456
2017-08-02T06:00:08.974Z,29408
2017-08-02T06:01:08.964Z,31680
2017-08-02T06:02:08.650Z,31488
2017-08-02T06:03:08.637Z,28256
2017-08-02T06:04:08.960Z,29472
2017-08-02T06:05:08.939Z,32736
2017-08-02T06:06:08.938Z,33920
2017-08-02T06:07:08.946Z,32704
2017-08-02T06:08:08.929Z,29952
2017-08-02T06:09:08.926Z,33760
2017-08-02T06:10:08.919Z,37952
2017-08-02T06:11:08.610Z,41696
2017-08-02T06:12:08.610Z,40960
2017-08-02T06:13:08.899Z,36032
2017-08-02T06:14:08.591Z,30688
2017-08-02T06:15:09.867Z,31232
2017-08-02T06:16:09.709Z,35648
2017-08-02T06:17:08.876Z,39136
2017-08-02T06:18:08.877Z,36544
2017-08-02T06:19:08.566Z,40928
2017-08-02T06:20:08.865Z,40768
2017-08-02T06:21:08.862Z,35520
2017-08-02T06:22:08.860Z,37504
2017-08-02T06:23:08.557Z,37024
2017-08-02T06:24:08.552Z,35872
2017-08-02T06:25:08.547Z,34912
2017-08-02T06:26:08.549Z,40096
2017-08-02T06:27:08.863Z,38368
2017-08-02T06:28:08.523Z,41792
2017-08-02T06:29:08.836Z,41216
2017-08-02T06:30:08.837Z,44768
2017-08-02T06:31:08.515Z,44992
2017-08-02T06:32:08.506Z,41088
2017-08-02T06:33:08.506Z,41888
2017-08-02T06:34:08.807Z,42368
2017-08-02T06:35:08.498Z,45440
2017-08-02T06:36:08.492Z,45344
2017-08-02T06:37:08.489Z,53248
2017-08-02T06:38:08.489Z,54208
2017-08-02T06:39:08.790Z,46624
2017-08-02T06:40:08.169Z,44320
2017-08-02T06:41:08.477Z,54496
2017-08-02T06:42:08.776Z,58464
2017-08-02T06:43:08.787Z,59264
2017-08-02T06:44:08.462Z,60352
2017-08-02T06:45:08.774Z,61856
2017-08-02T06:46:08.761Z,31680
2017-08-02T06:47:08.737Z,36320
2017-08-02T06:48:08.452Z,69600
2017-08-02T06:49:08.733Z,69824
2017-08-02T06:50:08.728Z,71168
2017-08-02T06:51:08.729Z,43296
2017-08-02T06:52:08.734Z,43392
2017-08-02T06:53:08.720Z,60096
2017-08-02T06:54:08.760Z,35936
2017-08-02T06:55:08.730Z,46720
2017-08-02T06:56:08.718Z,37632
2017-08-02T06:57:08.420Z,31648
2017-08-02T06:58:08.396Z,28640
2017-08-02T06:59:08.703Z,27488
2017-08-02T07:00:08.391Z,26496
2017-08-02T07:01:08.687Z,24096
2017-08-02T07:02:08.378Z,85312
2017-08-02T07:03:08.669Z,32224
2017-08-02T07:04:08.672Z,67392
2017-08-02T07:05:08.674Z,28192
2017-08-02T07:06:08.674Z,68576
2017-08-02T07:07:08.361Z,23584
2017-08-02T07:08:08.650Z,32256
2017-08-02T07:09:08.064Z,18944
2017-08-02T07:10:08.051Z,39584
2017-08-02T07:11:08.661Z,58272
2017-08-02T07:12:08.058Z,59296
2017-08-02T07:13:08.642Z,62720
2017-08-02T07:14:08.651Z,57888
2017-08-02T07:15:08.038Z,57920
2017-08-02T07:16:08.016Z,62048
2017-08-02T07:17:08.317Z,64512
2017-08-02T07:18:08.615Z,66400
2017-08-02T07:19:08.328Z,64480
2017-08-02T07:20:08.605Z,47296
2017-08-02T07:21:08.607Z,59936
2017-08-02T07:22:08.610Z,66560
2017-08-02T07:23:08.627Z,73952
2017-08-02T07:24:08.609Z,20832
2017-08-02T07:25:08.600Z,77952
2017-08-02T07:26:08.295Z,78816
2017-08-02T07:27:08.617Z,77728
2017-08-02T07:28:08.786Z,34368
2017-08-02T07:29:08.596Z,22240
2017-08-02T07:30:08.583Z,70336
2017-08-02T07:31:08.578Z,57728
2017-08-02T07:32:08.580Z,44192
2017-08-02T07:33:08.769Z,37056
2017-08-02T07:34:22.470Z,31840
2017-08-02T07:35:21.898Z,52960
2017-08-02T07:36:08.561Z,72064
2017-08-02T07:37:08.565Z,77632
2017-08-02T07:38:08.567Z,70272
2017-08-02T07:39:08.554Z,66912
2017-08-02T07:40:08.766Z,72192
2017-08-02T07:41:08.549Z,73440
2017-08-02T07:42:08.535Z,70176
2017-08-02T07:43:08.540Z,74016
2017-08-02T07:44:08.242Z,82368
2017-08-02T07:45:08.223Z,95008
2017-08-02T07:46:08.522Z,77408
2017-08-02T07:47:08.505Z,93440
2017-08-02T07:48:08.213Z,95968
2017-08-02T07:49:08.510Z,68864
2017-08-02T07:50:08.505Z,80480
2017-08-02T07:51:08.509Z,43776
2017-08-02T07:52:07.906Z,55552
2017-08-02T07:53:08.502Z,87488
2017-08-02T07:54:08.191Z,77504
2017-08-02T07:55:08.505Z,81376
2017-08-02T07:56:08.497Z,93184
2017-08-02T07:57:08.488Z,72672
2017-08-02T07:58:08.182Z,70016
2017-08-02T07:59:08.779Z,42560
2017-08-02T08:00:08.192Z,88000
2017-08-02T08:01:08.487Z,79328
2017-08-02T08:02:08.158Z,98336
2017-08-02T08:03:08.458Z,81440
2017-08-02T08:04:08.053Z,68544
2017-08-02T08:05:08.456Z,104928
2017-08-02T08:06:07.845Z,119104
2017-08-02T08:07:08.457Z,87520
2017-08-02T08:08:08.444Z,81696
2017-08-02T08:09:08.150Z,56832
2017-08-02T08:10:08.433Z,84064
2017-08-02T08:11:08.452Z,83264
2017-08-02T08:12:07.818Z,59584
2017-08-02T08:13:08.428Z,61632
2017-08-02T08:14:08.034Z,52288
2017-08-02T08:15:21.806Z,57984
2017-08-02T08:16:22.324Z,71424
2017-08-02T08:17:08.416Z,79328
2017-08-02T08:18:08.419Z,115616
2017-08-02T08:19:08.119Z,97344
2017-08-02T08:20:08.422Z,87296
2017-08-02T08:21:08.412Z,60896
2017-08-02T08:22:08.096Z,84320
2017-08-02T08:23:08.405Z,73440
2017-08-02T08:24:08.091Z,61152
2017-08-02T08:25:08.589Z,103872
2017-08-02T08:26:08.083Z,63808
2017-08-02T08:27:08.085Z,54080
2017-08-02T08:28:08.377Z,69536
2017-08-02T08:29:08.383Z,97600
2017-08-02T08:30:08.374Z,106304
2017-08-02T08:31:08.363Z,56672
2017-08-02T08:32:08.379Z,53024
2017-08-02T08:33:08.065Z,40544
2017-08-02T08:34:07.759Z,55872
2017-08-02T08:35:07.755Z,46496
2017-08-02T08:36:08.372Z,130528
2017-08-02T08:37:08.364Z,116160
2017-08-02T08:38:08.040Z,102592
2017-08-02T08:39:08.039Z,113344
2017-08-02T08:40:08.348Z,123840
2017-08-02T08:41:08.349Z,65536
2017-08-02T08:42:07.733Z,125024
2017-08-02T08:43:08.031Z,139840
2017-08-02T08:44:08.040Z,133856
2017-08-02T08:45:08.024Z,102016
2017-08-02T08:46:08.338Z,40608
2017-08-02T08:47:08.320Z,46304
2017-08-02T08:48:08.328Z,53696
2017-08-02T08:49:08.324Z,66848
2017-08-02T08:50:08.218Z,55264
2017-08-02T08:51:08.323Z,46944
2017-08-02T08:52:08.322Z,80320
2017-08-02T08:53:08.320Z,163456
2017-08-02T08:54:08.341Z,97920
2017-08-02T08:55:08.318Z,86432
2017-08-02T08:56:08.527Z,91104
2017-08-02T08:57:08.244Z,69728
2017-08-02T08:58:08.306Z,75744
2017-08-02T08:59:08.304Z,83328
2017-08-02T09:00:08.298Z,80384
2017-08-02T09:01:08.287Z,60192
2017-08-02T09:02:08.287Z,78944
2017-08-02T09:03:08.300Z,129088
2017-08-02T09:04:08.296Z,115808
2017-08-02T09:05:08.277Z,101888
2017-08-02T09:06:08.284Z,83328
2017-08-02T09:07:08.273Z,99296
2017-08-02T09:08:08.296Z,89696
2017-08-02T09:09:08.269Z,118560
2017-08-02T09:10:08.277Z,121504
2017-08-02T09:11:08.293Z,114432
2017-08-02T09:12:08.268Z,113344
2017-08-02T09:13:07.964Z,140800
2017-08-02T09:14:08.262Z,152256
2017-08-02T09:15:07.958Z,142560
2017-08-02T09:16:08.252Z,46688
2017-08-02T09:17:07.961Z,81216
2017-08-02T09:18:08.265Z,130624
2017-08-02T09:19:07.961Z,117504
2017-08-02T09:20:07.949Z,114912
2017-08-02T09:21:08.251Z,101504
2017-08-02T09:22:08.259Z,110240
2017-08-02T09:23:08.256Z,122112
2017-08-02T09:24:08.254Z,102880
2017-08-02T09:25:08.245Z,116992
2017-08-02T09:26:07.942Z,115456
2017-08-02T09:27:08.251Z,119200
2017-08-02T09:28:07.939Z,46048
2017-08-02T09:29:07.929Z,47072
2017-08-02T09:30:08.235Z,73056
2017-08-02T09:31:08.233Z,99008
2017-08-02T09:32:08.442Z,120704
2017-08-02T09:33:08.217Z,89792
2017-08-02T09:34:07.610Z,99072
2017-08-02T09:35:08.225Z,62336
2017-08-02T09:36:08.213Z,63840
2017-08-02T09:37:07.906Z,97344
2017-08-02T09:38:21.552Z,84640
2017-08-02T09:39:07.898Z,103552
2017-08-02T09:40:08.204Z,99616
2017-08-02T09:41:08.191Z,106464
2017-08-02T09:42:07.908Z,43968
2017-08-02T09:43:08.392Z,61024
2017-08-02T09:44:07.887Z,110912
2017-08-02T09:45:08.187Z,104640
2017-08-02T09:46:07.885Z,107200
2017-08-02T09:47:08.172Z,59296
2017-08-02T09:48:08.169Z,116544
2017-08-02T09:49:08.189Z,88064
2017-08-02T09:50:07.582Z,49920
2017-08-02T09:51:08.182Z,60960
2017-08-02T09:52:07.867Z,104800
2017-08-02T09:53:08.161Z,93888
2017-08-02T09:54:07.874Z,97984
2017-08-02T09:55:08.151Z,102144
2017-08-02T09:56:07.857Z,70304
2017-08-02T09:57:07.834Z,102944
2017-08-02T09:58:07.525Z,107904
2017-08-02T09:59:08.142Z,96960
2017-08-02T10:00:07.835Z,100800
2017-08-02T10:01:07.841Z,99392
2017-08-02T10:02:08.136Z,109184
2017-08-02T10:03:07.519Z,116416
2017-08-02T10:04:07.827Z,42848
2017-08-02T10:05:08.131Z,89216
2017-08-02T10:06:07.810Z,62912
2017-08-02T10:07:08.140Z,99456
2017-08-02T10:08:08.037Z,138752
2017-08-02T10:09:07.803Z,50272
2017-08-02T10:10:08.107Z,70592
2017-08-02T10:11:08.106Z,79872
2017-08-02T10:12:22.421Z,95872
2017-08-02T10:13:08.110Z,58336
2017-08-02T10:14:21.446Z,58752
2017-08-02T10:15:07.795Z,54912
2017-08-02T10:16:07.798Z,47136
2017-08-02T10:17:07.786Z,41056
2017-08-02T10:18:08.293Z,38912
2017-08-02T10:19:07.997Z,38400
2017-08-02T10:20:07.778Z,35936
2017-08-02T10:21:08.078Z,33632
2017-08-02T10:22:08.082Z,30784
2017-08-02T10:23:07.469Z,27264
2017-08-02T10:24:07.769Z,23616
2017-08-02T10:25:08.277Z,21440
2017-08-02T10:26:08.070Z,20576
2017-08-02T10:27:08.068Z,20320
2017-08-02T10:28:08.064Z,21184
2017-08-02T10:29:08.060Z,23040
2017-08-02T10:30:08.049Z,24992
2017-08-02T10:31:08.049Z,23872
2017-08-02T10:32:08.063Z,18592
2017-08-02T10:33:08.035Z,14608
2017-08-02T10:34:08.047Z,12632
2017-08-02T10:35:07.717Z,12064
2017-08-02T10:36:07.418Z,11648
2017-08-02T10:37:08.025Z,11128
2017-08-02T10:38:07.713Z,10652
2017-08-02T10:39:08.027Z,9300
2017-08-02T10:40:08.011Z,7724
2017-08-02T10:41:07.719Z,6500
2017-08-02T10:42:07.403Z,6000
2017-08-02T10:43:07.395Z,5956
2017-08-02T10:44:07.383Z,6180
2017-08-02T10:45:07.707Z,7308
2017-08-02T10:46:07.981Z,8500
2017-08-02T10:47:07.684Z,9160
2017-08-02T10:48:07.373Z,10972
2017-08-02T10:49:07.968Z,12400
2017-08-02T10:50:07.980Z,12816
2017-08-02T10:51:07.347Z,12656
2017-08-02T10:52:07.656Z,15128
2017-08-02T10:53:07.355Z,17028
2017-08-02T10:54:07.956Z,15208
2017-08-02T10:55:07.645Z,11204
2017-08-02T10:56:07.649Z,8876
2017-08-02T10:57:07.940Z,8788
2017-08-02T10:58:07.934Z,12020
2017-08-02T10:59:07.932Z,22848
2017-08-02T11:00:07.616Z,37280
2017-08-02T11:01:07.616Z,45664
2017-08-02T11:02:07.606Z,44544
2017-08-02T11:03:07.605Z,37728
2017-08-02T11:04:07.903Z,35296
2017-08-02T11:05:07.897Z,37088
2017-08-02T11:06:07.592Z,29184
2017-08-02T11:07:07.581Z,26976
2017-08-02T11:08:07.584Z,38496
2017-08-02T11:09:07.564Z,57824
2017-08-02T11:10:07.569Z,97024
2017-08-02T11:11:07.858Z,136896
2017-08-02T11:12:07.862Z,164448
2017-08-02T11:13:07.853Z,162272
2017-08-02T11:14:07.847Z,136768
2017-08-02T11:15:07.870Z,137568
2017-08-02T11:16:07.836Z,58976
2017-08-02T11:17:07.834Z,142688
2017-08-02T11:18:07.522Z,151168
2017-08-02T11:19:07.536Z,88608
2017-08-02T11:20:07.817Z,80960
2017-08-02T11:21:07.813Z,73696
2017-08-02T11:22:07.513Z,89504
2017-08-02T11:23:07.826Z,52352
2017-08-02T11:24:07.505Z,73888
2017-08-02T11:25:07.802Z,70368
2017-08-02T11:26:07.799Z,56256
2017-08-02T11:27:07.808Z,55968
2017-08-02T11:28:07.779Z,29376
2017-08-02T11:29:07.805Z,19456
2017-08-02T11:30:07.482Z,16448
2017-08-02T11:31:07.786Z,14712
2017-08-02T11:32:07.470Z,24032
2017-08-02T11:33:07.470Z,36352
2017-08-02T11:34:07.764Z,48928
2017-08-02T11:35:07.750Z,54944
2017-08-02T11:36:07.745Z,60480
2017-08-02T11:37:07.456Z,75936
2017-08-02T11:38:07.748Z,78528
2017-08-02T11:39:07.742Z,86144
2017-08-02T11:40:07.738Z,92128
2017-08-02T11:41:07.426Z,116704
2017-08-02T11:42:07.408Z,108544
2017-08-02T11:43:07.715Z,131488
2017-08-02T11:44:07.706Z,128160
2017-08-02T11:45:07.712Z,142272
2017-08-02T11:46:07.404Z,148448
2017-08-02T11:47:07.692Z,130144
2017-08-02T11:48:07.697Z,136544
2017-08-02T11:49:07.702Z,129056
2017-08-02T11:50:07.383Z,114560
2017-08-02T11:51:07.678Z,119008
2017-08-02T11:52:07.676Z,118016
2017-08-02T11:53:07.675Z,116192
2017-08-02T11:54:07.061Z,114272
2017-08-02T11:55:07.679Z,113920
2017-08-02T11:56:07.657Z,112704
2017-08-02T11:57:07.670Z,111072
2017-08-02T11:58:07.357Z,109408
2017-08-02T11:59:07.332Z,106272
2017-08-02T12:00:07.356Z,104608
2017-08-02T12:01:07.653Z,103360
2017-08-02T12:02:07.644Z,100192
2017-08-02T12:03:07.324Z,99232
2017-08-02T12:04:07.630Z,97920
2017-08-02T12:05:07.323Z,100608
2017-08-02T12:06:07.326Z,98336
2017-08-02T12:07:07.318Z,90656
2017-08-02T12:08:07.612Z,85504
2017-08-02T12:09:07.313Z,82496
2017-08-02T12:10:07.622Z,85696
2017-08-02T12:11:07.603Z,92960
2017-08-02T12:12:07.610Z,101088
2017-08-02T12:13:07.615Z,106240
2017-08-02T12:14:07.598Z,105600
2017-08-02T12:15:07.278Z,104832
2017-08-02T12:16:07.292Z,104896
2017-08-02T12:17:07.574Z,103808
2017-08-02T12:18:06.978Z,104704
2017-08-02T12:19:07.587Z,103264
2017-08-02T12:20:07.275Z,101504
2017-08-02T12:21:07.569Z,99328
2017-08-02T12:22:07.563Z,97888
2017-08-02T12:23:07.567Z,96896
2017-08-02T12:24:07.262Z,101504
2017-08-02T12:25:07.257Z,119296
2017-08-02T12:26:07.559Z,132192
2017-08-02T12:27:07.256Z,140800
2017-08-02T12:28:06.935Z,138496
2017-08-02T12:29:07.534Z,136064
2017-08-02T12:30:07.244Z,117952
2017-08-02T12:31:07.225Z,113184
2017-08-02T12:32:06.926Z,98144
2017-08-02T12:33:07.536Z,89984
2017-08-02T12:34:07.234Z,87264
2017-08-02T12:35:07.214Z,84544
2017-08-02T12:36:07.215Z,87744
2017-08-02T12:37:07.511Z,91840
2017-08-02T12:38:07.515Z,91296
2017-08-02T12:39:07.517Z,98304
2017-08-02T12:40:07.501Z,108928
2017-08-02T12:41:07.485Z,118624
2017-08-02T12:42:07.505Z,121088
2017-08-02T12:43:07.488Z,118784
2017-08-02T12:44:07.490Z,114720
2017-08-02T12:45:07.166Z,112288
2017-08-02T12:46:07.481Z,110976
2017-08-02T12:47:07.476Z,110048
2017-08-02T12:48:07.476Z,110432
2017-08-02T12:49:07.468Z,109536
2017-08-02T12:50:07.452Z,102752
2017-08-02T12:51:07.456Z,98976
2017-08-02T12:52:07.144Z,108416
2017-08-02T12:53:07.432Z,108928
2017-08-02T12:54:07.447Z,105888
2017-08-02T12:55:07.127Z,100928
2017-08-02T12:56:07.140Z,99936
2017-08-02T12:57:07.435Z,47840
2017-08-02T12:58:07.409Z,97600
2017-08-02T12:59:07.420Z,95328
2017-08-02T13:00:07.420Z,102272
2017-08-02T13:01:07.416Z,113760
2017-08-02T13:02:07.408Z,71616
2017-08-02T13:03:07.415Z,117984
2017-08-02T13:04:07.107Z,111296
2017-08-02T13:05:07.091Z,111040
2017-08-02T13:06:07.398Z,111200
2017-08-02T13:07:07.386Z,114656
2017-08-02T13:08:07.395Z,120800
2017-08-02T13:09:07.070Z,23648
2017-08-02T13:10:07.370Z,132448
2017-08-02T13:11:07.373Z,123520
2017-08-02T13:12:06.763Z,109344
2017-08-02T13:13:07.370Z,98304
2017-08-02T13:14:07.363Z,99168
2017-08-02T13:15:07.347Z,34624
2017-08-02T13:16:07.342Z,28832
2017-08-02T13:17:07.339Z,117536
2017-08-02T13:18:07.341Z,121920
2017-08-02T13:19:07.341Z,116864
2017-08-02T13:20:07.027Z,102912